createdAt,value
2023-01-04T00:00:17.283Z,1.46
2023-01-04T00:03:05.659Z,1.41
2023-01-04T00:05:54.934Z,1.37
2023-01-04T00:08:43.322Z,1.36
2023-01-04T00:11:31.238Z,1.33
2023-01-04T00:14:22.159Z,1.33
2023-01-04T00:17:11.401Z,1.30
2023-01-04T00:19:59.267Z,1.28
2023-01-04T00:22:48.434Z,1.26
2023-01-04T00:25:38.933Z,1.23
2023-01-04T00:28:26.553Z,1.19
2023-01-04T00:31:16.338Z,1.17
2023-01-04T00:34:07.022Z,1.12
2023-01-04T00:36:56.854Z,1.08
2023-01-04T00:39:44.899Z,1.06
2023-01-04T00:42:32.869Z,1.02
2023-01-04T00:45:20.658Z,0.98
2023-01-04T00:48:08.658Z,0.93
2023-01-04T00:50:58.030Z,0.90
2023-01-04T00:53:45.635Z,0.88
2023-01-04T00:56:34.739Z,0.85
2023-01-04T00:59:23.536Z,0.78
2023-01-04T01:02:12.066Z,0.76
2023-01-04T01:05:01.339Z,0.75
2023-01-04T01:07:51.432Z,0.70
2023-01-04T01:10:39.397Z,0.62
2023-01-04T01:13:27.298Z,0.58
2023-01-04T01:16:27.325Z,0.56
2023-01-04T01:19:26.426Z,0.53
2023-01-04T01:22:16.424Z,0.51
2023-01-04T01:25:05.960Z,0.48
2023-01-04T01:27:53.651Z,0.46
2023-01-04T01:30:42.629Z,0.46
2023-01-04T01:33:30.393Z,0.44
2023-01-04T01:36:21.018Z,0.41
2023-01-04T01:39:08.965Z,0.37
2023-01-04T01:41:59.486Z,0.31
2023-01-04T01:45:01.540Z,0.31
2023-01-04T01:47:52.555Z,0.28
2023-01-04T01:50:44.930Z,0.28
2023-01-04T01:53:38.652Z,0.29
2023-01-04T01:56:30.381Z,0.26
2023-01-04T01:59:20.662Z,0.22
2023-01-04T02:02:11.734Z,0.20
2023-01-04T02:05:05.772Z,0.17
2023-01-04T02:07:54.151Z,0.23
2023-01-04T02:10:41.884Z,0.32
2023-01-04T02:13:46.713Z,0.41
2023-01-04T02:17:01.139Z,0.49
2023-01-04T02:20:11.117Z,0.32
2023-01-04T02:23:28.754Z,0.29
2023-01-04T02:27:04.873Z,0.45
2023-01-04T02:30:38.440Z,0.59
2023-01-04T02:33:49.010Z,0.68
2023-01-04T02:36:44.398Z,0.72
2023-01-04T02:39:42.668Z,0.70
2023-01-04T02:42:58.280Z,0.76
2023-01-04T02:45:53.561Z,0.77
2023-01-04T02:49:02.895Z,0.79
2023-01-04T02:51:50.656Z,0.81
2023-01-04T02:54:39.186Z,0.88
2023-01-04T02:57:37.570Z,0.98
2023-01-04T03:01:02.538Z,1.02
2023-01-04T03:04:23.759Z,1.11
2023-01-04T03:07:18.522Z,1.16
2023-01-04T03:10:12.097Z,1.25
2023-01-04T03:13:06.204Z,1.35
2023-01-04T03:15:58.540Z,1.41
2023-01-04T03:18:49.235Z,1.48
2023-01-04T03:21:44.958Z,1.52
2023-01-04T03:24:52.230Z,1.59
2023-01-04T03:27:59.401Z,1.63
2023-01-04T03:31:14.233Z,1.70
2023-01-04T03:34:20.086Z,1.79
2023-01-04T03:37:17.393Z,1.83
2023-01-04T03:40:37.626Z,1.86
2023-01-04T03:43:52.688Z,1.92
2023-01-04T03:47:05.519Z,1.99
2023-01-04T03:50:02.128Z,2.02
2023-01-04T03:52:53.437Z,2.07
2023-01-04T03:55:43.673Z,2.15
2023-01-04T03:58:33.564Z,2.18
2023-01-04T04:01:25.284Z,2.20
2023-01-04T04:04:31.147Z,2.31
2023-01-04T04:07:36.697Z,2.37
2023-01-04T04:10:25.992Z,2.42
2023-01-04T04:13:14.144Z,2.45
2023-01-04T04:16:01.879Z,2.50
2023-01-04T04:18:50.056Z,2.53
2023-01-04T04:21:37.884Z,2.57
2023-01-04T04:24:27.734Z,2.57
2023-01-04T04:27:19.918Z,2.62
2023-01-04T04:30:08.947Z,2.64
2023-01-04T04:32:57.229Z,2.72
2023-01-04T04:35:45.399Z,2.74
2023-01-04T04:38:33.277Z,2.80
2023-01-04T04:41:38.551Z,2.83
2023-01-04T04:44:27.581Z,2.87
2023-01-04T04:47:15.650Z,2.88
2023-01-04T04:50:03.815Z,2.92
2023-01-04T04:52:56.301Z,2.95
2023-01-04T04:55:44.543Z,2.98
2023-01-04T04:58:35.286Z,3.01
2023-01-04T05:01:26.769Z,3.03
2023-01-04T05:04:16.943Z,3.07
2023-01-04T05:07:10.672Z,3.09
2023-01-04T05:10:00.106Z,3.12
2023-01-04T05:13:03.863Z,3.12
2023-01-04T05:15:55.272Z,3.15
2023-01-04T05:18:44.238Z,3.16
2023-01-04T05:21:32.133Z,3.15
2023-01-04T05:24:26.257Z,3.19
2023-01-04T05:27:14.413Z,3.17
2023-01-04T05:30:19.837Z,3.15
2023-01-04T05:33:08.074Z,3.12
2023-01-04T05:35:58.840Z,3.10
2023-01-04T05:38:48.753Z,3.11
2023-01-04T05:42:13.237Z,3.12
2023-01-04T05:45:07.361Z,3.13
2023-01-04T05:47:55.853Z,3.15
2023-01-04T05:50:45.795Z,3.18
2023-01-04T05:53:34.960Z,3.20
2023-01-04T05:56:25.210Z,3.22
2023-01-04T05:59:13.576Z,3.25
2023-01-04T06:02:01.600Z,3.27
2023-01-04T06:04:59.138Z,3.29
2023-01-04T06:07:48.863Z,3.32
2023-01-04T06:10:40.409Z,3.32
2023-01-04T06:13:28.195Z,3.34
2023-01-04T06:16:18.169Z,3.35
2023-01-04T06:19:07.729Z,3.38
2023-01-04T06:21:56.200Z,3.37
2023-01-04T06:24:44.429Z,3.40
2023-01-04T06:27:35.204Z,3.42
2023-01-04T06:30:23.111Z,3.43
2023-01-04T06:33:13.256Z,3.44
2023-01-04T06:36:01.476Z,3.48
2023-01-04T06:38:49.556Z,3.52
2023-01-04T06:41:38.955Z,3.48
2023-01-04T06:44:28.126Z,3.54
2023-01-04T06:47:17.672Z,3.56
2023-01-04T06:50:07.198Z,3.58
2023-01-04T06:52:54.929Z,3.57
2023-01-04T06:55:45.757Z,3.61
2023-01-04T06:58:33.518Z,3.62
2023-01-04T07:01:22.598Z,3.62
2023-01-04T07:04:11.639Z,3.64
2023-01-04T07:06:59.565Z,3.66
2023-01-04T07:09:49.169Z,3.69
2023-01-04T07:12:37.379Z,3.71
2023-01-04T07:15:39.317Z,3.74
2023-01-04T07:18:29.291Z,3.79
2023-01-04T07:21:17.244Z,3.80
2023-01-04T07:24:05.495Z,3.88
2023-01-04T07:26:53.002Z,3.90
2023-01-04T07:29:43.809Z,3.94
2023-01-04T07:32:31.484Z,3.98
2023-01-04T07:35:21.268Z,4.03
2023-01-04T07:38:09.190Z,4.06
2023-01-04T07:41:00.381Z,4.07
2023-01-04T07:43:48.251Z,4.08
2023-01-04T07:46:37.534Z,4.12
2023-01-04T07:49:28.574Z,4.14
2023-01-04T07:52:17.656Z,4.19
2023-01-04T07:55:05.612Z,4.20
2023-01-04T07:57:55.246Z,4.22
2023-01-04T08:00:43.236Z,4.25
2023-01-04T08:03:31.163Z,4.28
2023-01-04T08:06:21.130Z,4.29
2023-01-04T08:09:13.235Z,4.32
2023-01-04T08:12:01.574Z,4.35
2023-01-04T08:14:49.681Z,4.38
2023-01-04T08:17:37.555Z,4.40
2023-01-04T08:20:25.337Z,4.40
2023-01-04T08:23:13.367Z,4.44
2023-01-04T08:26:06.438Z,4.47
2023-01-04T08:28:54.793Z,4.48
2023-01-04T08:31:42.861Z,4.49
2023-01-04T08:34:32.267Z,4.53
2023-01-04T08:37:19.960Z,4.59
2023-01-04T08:40:11.616Z,4.63
2023-01-04T08:43:00.841Z,4.66
2023-01-04T08:45:48.635Z,4.71
2023-01-04T08:48:36.762Z,4.74
2023-01-04T08:51:24.688Z,4.82
2023-01-04T08:54:13.247Z,4.89
2023-01-04T08:57:01.365Z,4.98
2023-01-04T08:59:50.789Z,5.05
2023-01-04T09:02:39.025Z,5.07
2023-01-04T09:05:33.164Z,5.03
2023-01-04T09:08:27.496Z,5.06
2023-01-04T09:11:17.719Z,5.13
2023-01-04T09:14:09.380Z,5.19
2023-01-04T09:16:58.790Z,5.27
2023-01-04T09:19:46.506Z,5.36
2023-01-04T09:22:34.523Z,5.35
2023-01-04T09:25:22.362Z,5.41
2023-01-04T09:28:12.773Z,5.58
2023-01-04T09:31:05.250Z,5.58
2023-01-04T09:37:02.973Z,5.77
2023-01-04T09:39:50.983Z,5.80
2023-01-04T09:42:47.472Z,5.93
2023-01-04T09:45:38.292Z,6.01
2023-01-04T09:48:30.282Z,5.97
2023-01-04T09:51:23.162Z,6.11
2023-01-04T09:54:17.087Z,6.20
2023-01-04T09:57:05.616Z,6.18
2023-01-04T09:59:58.417Z,6.28
2023-01-04T10:02:48.766Z,6.27
2023-01-04T10:05:36.479Z,6.29
2023-01-04T10:08:25.947Z,6.32
2023-01-04T10:11:27.605Z,6.38
2023-01-04T10:14:36.221Z,6.45
2023-01-04T10:18:43.441Z,6.47
2023-01-04T10:21:29.516Z,6.47
2023-01-04T10:24:39.974Z,6.44
2023-01-04T10:27:42.352Z,6.42
2023-01-04T10:30:41.117Z,6.46
2023-01-04T10:33:38.395Z,6.60
2023-01-04T10:36:31.516Z,6.54
2023-01-04T10:39:32.331Z,6.66
2023-01-04T10:42:36.732Z,6.84
2023-01-04T10:45:35.814Z,6.77
2023-01-04T10:48:32.150Z,6.89
2023-01-04T10:51:29.248Z,6.95
2023-01-04T10:54:25.463Z,7.02
2023-01-04T10:57:19.136Z,6.99
2023-01-04T11:00:12.834Z,7.00
2023-01-04T11:03:09.052Z,7.05
2023-01-04T11:06:03.660Z,7.06
2023-01-04T11:08:56.932Z,7.13
2023-01-04T11:11:46.645Z,7.10
2023-01-04T11:14:37.517Z,7.12
2023-01-04T11:17:27.294Z,7.24
2023-01-04T11:20:15.241Z,7.19
2023-01-04T11:23:06.704Z,7.28
2023-01-04T11:25:59.917Z,7.29
2023-01-04T11:28:52.690Z,7.35
2023-01-04T11:31:50.049Z,7.22
2023-01-04T11:34:49.042Z,7.30
2023-01-04T11:37:38.365Z,7.19
2023-01-04T11:40:28.119Z,7.33
2023-01-04T11:43:20.939Z,7.39
2023-01-04T11:46:24.305Z,7.34
2023-01-04T11:49:21.337Z,7.38
2023-01-04T11:52:31.085Z,7.37
2023-01-04T11:55:26.511Z,7.44
2023-01-04T11:58:16.464Z,7.34
2023-01-04T12:01:06.217Z,7.44
2023-01-04T12:03:54.181Z,7.58
2023-01-04T12:06:48.880Z,7.53
2023-01-04T12:09:38.074Z,7.77
2023-01-04T12:12:30.555Z,7.68
2023-01-04T12:15:26.456Z,7.79
2023-01-04T12:18:21.077Z,7.90
2023-01-04T12:21:16.503Z,7.91
2023-01-04T12:24:08.488Z,7.93
2023-01-04T12:26:58.132Z,7.84
2023-01-04T12:29:55.469Z,7.94
2023-01-04T12:32:47.696Z,8.01
2023-01-04T12:36:04.058Z,8.01
2023-01-04T12:39:39.014Z,7.94
2023-01-04T12:42:28.384Z,8.05
2023-01-04T12:45:19.628Z,8.05
2023-01-04T12:48:57.249Z,8.07
2023-01-04T12:51:58.278Z,8.34
2023-01-04T12:54:55.860Z,8.32
2023-01-04T12:58:07.847Z,8.35
2023-01-04T13:01:24.691Z,8.37
2023-01-04T13:04:40.866Z,8.46
2023-01-04T13:07:32.527Z,8.44
2023-01-04T13:10:29.153Z,8.51
2023-01-04T13:13:32.360Z,8.65
2023-01-04T13:16:28.708Z,8.56
2023-01-04T13:19:22.116Z,8.51
2023-01-04T13:22:20.943Z,8.48
2023-01-04T13:26:04.050Z,8.61
2023-01-04T13:29:07.766Z,8.68
2023-01-04T13:32:00.121Z,8.65
2023-01-04T13:34:56.533Z,8.72
2023-01-04T13:37:46.136Z,8.67
2023-01-04T13:40:37.468Z,8.73
2023-01-04T13:43:56.289Z,8.78
2023-01-04T13:46:45.605Z,8.89
2023-01-04T13:49:33.564Z,8.84
2023-01-04T13:52:50.514Z,8.82
2023-01-04T13:55:34.769Z,8.82
2023-01-04T13:58:48.071Z,8.82
2023-01-04T14:01:41.315Z,8.84
2023-01-04T14:04:35.945Z,8.84
2023-01-04T14:07:24.669Z,8.89
2023-01-04T14:10:19.900Z,8.89
2023-01-04T14:13:09.953Z,8.94
2023-01-04T14:16:13.076Z,8.89
2023-01-04T14:19:25.196Z,8.90
2023-01-04T14:22:41.417Z,8.94
2023-01-04T14:25:48.637Z,8.89
2023-01-04T14:28:49.678Z,8.93
2023-01-04T14:31:38.775Z,8.91
2023-01-04T14:34:26.406Z,8.89
2023-01-04T14:37:14.723Z,8.98
2023-01-04T14:40:14.444Z,8.99
2023-01-04T14:43:02.418Z,8.99
2023-01-04T14:45:50.469Z,9.00
2023-01-04T14:48:38.853Z,9.04
2023-01-04T14:51:33.884Z,9.03
2023-01-04T14:54:25.705Z,9.13
2023-01-04T14:57:33.044Z,9.09
2023-01-04T15:00:21.546Z,9.08
2023-01-04T15:03:09.621Z,9.00
2023-01-04T15:05:58.450Z,8.95
2023-01-04T15:08:46.637Z,8.94
2023-01-04T15:11:34.404Z,8.93
2023-01-04T15:14:24.316Z,8.87
2023-01-04T15:17:12.187Z,8.82
2023-01-04T15:20:00.197Z,8.77
2023-01-04T15:22:48.097Z,8.74
2023-01-04T15:25:36.563Z,8.71
2023-01-04T15:28:26.394Z,8.71
2023-01-04T15:31:17.192Z,8.67
2023-01-04T15:34:09.405Z,8.64
2023-01-04T15:36:57.287Z,8.61
2023-01-04T15:39:46.399Z,8.56
2023-01-04T15:42:51.678Z,8.54
2023-01-04T15:45:40.645Z,8.52
2023-01-04T15:48:29.683Z,8.49
2023-01-04T15:51:17.824Z,8.46
2023-01-04T15:54:05.784Z,8.45
2023-01-04T15:56:53.522Z,8.41
2023-01-04T15:59:41.395Z,8.40
2023-01-04T16:02:29.612Z,8.38
2023-01-04T16:05:20.828Z,8.36
2023-01-04T16:08:09.379Z,8.35
2023-01-04T16:10:57.348Z,8.36
2023-01-04T16:13:47.336Z,8.34
2023-01-04T16:16:35.245Z,8.33
2023-01-04T16:19:23.119Z,8.35
2023-01-04T16:22:13.815Z,8.35
2023-01-04T16:25:10.739Z,8.30
2023-01-04T16:27:59.493Z,8.29
2023-01-04T16:30:49.955Z,8.29
2023-01-04T16:33:38.209Z,8.29
2023-01-04T16:36:27.023Z,8.26
2023-01-04T16:39:17.049Z,8.25
2023-01-04T16:42:10.582Z,8.23
2023-01-04T16:44:58.999Z,8.29
2023-01-04T16:47:49.068Z,8.34
2023-01-04T16:50:40.977Z,8.28
2023-01-04T16:53:29.126Z,8.28
2023-01-04T16:56:21.162Z,8.32
2023-01-04T16:59:10.192Z,8.32
2023-01-04T17:01:58.468Z,8.30
2023-01-04T17:04:49.694Z,8.23
2023-01-04T17:07:37.704Z,8.26
2023-01-04T17:10:29.485Z,8.21
2023-01-04T17:13:18.976Z,8.26
2023-01-04T17:16:07.576Z,8.28
2023-01-04T17:18:56.783Z,8.22
2023-01-04T17:21:44.953Z,8.23
2023-01-04T17:24:32.937Z,8.22
2023-01-04T17:30:42.986Z,8.25
2023-01-04T17:33:30.825Z,8.22
2023-01-04T17:36:20.458Z,8.27
2023-01-04T17:39:08.602Z,8.23
2023-01-04T17:41:56.501Z,8.22
2023-01-04T17:44:46.077Z,8.27
2023-01-04T17:47:36.839Z,8.18
2023-01-04T17:50:25.931Z,8.26
2023-01-04T17:53:13.684Z,8.20
2023-01-04T17:56:03.921Z,8.29
2023-01-04T17:58:51.981Z,8.23
2023-01-04T18:01:39.896Z,8.25
2023-01-04T18:04:29.134Z,8.32
2023-01-04T18:07:17.774Z,8.30
2023-01-04T18:10:06.404Z,8.37
2023-01-04T18:12:54.237Z,8.39
2023-01-04T18:15:54.997Z,8.35
2023-01-04T18:18:50.173Z,8.44
2023-01-04T18:21:39.448Z,8.35
2023-01-04T18:24:36.781Z,8.44
2023-01-04T18:27:26.746Z,8.42
2023-01-04T18:30:15.481Z,8.45
2023-01-04T18:33:09.810Z,8.44
2023-01-04T18:36:02.846Z,8.50
2023-01-04T18:38:55.760Z,8.49
2023-01-04T18:41:48.316Z,8.54
2023-01-04T18:44:37.850Z,8.54
2023-01-04T18:47:30.583Z,8.51
2023-01-04T18:53:47.250Z,8.68
2023-01-04T18:56:38.811Z,8.54
2023-01-04T18:59:34.949Z,8.60
2023-01-04T19:02:22.812Z,8.61
2023-01-04T19:05:11.572Z,8.60
2023-01-04T19:07:59.487Z,8.64
2023-01-04T19:10:50.275Z,8.64
2023-01-04T19:13:47.497Z,8.65
2023-01-04T19:16:53.826Z,8.66
2023-01-04T19:19:43.070Z,8.66
2023-01-04T19:22:30.792Z,8.66
2023-01-04T19:25:23.180Z,8.72
2023-01-04T19:28:14.456Z,8.74
2023-01-04T19:31:09.288Z,8.72
2023-01-04T19:33:57.442Z,8.77
2023-01-04T19:36:45.142Z,8.79
2023-01-04T19:39:33.128Z,8.78
2023-01-04T19:42:21.250Z,8.80
2023-01-04T19:45:10.813Z,8.81
2023-01-04T19:48:00.451Z,8.85
2023-01-04T19:50:48.393Z,8.80
2023-01-04T19:53:36.818Z,8.79
2023-01-04T19:56:24.905Z,8.81
2023-01-04T19:59:12.739Z,8.82
2023-01-04T20:02:02.044Z,8.81
2023-01-04T20:08:08.331Z,8.99
2023-01-04T20:14:42.124Z,8.90
2023-01-04T20:17:31.438Z,8.95
2023-01-04T20:20:22.050Z,8.88
2023-01-04T20:23:15.130Z,8.86
2023-01-04T20:26:10.945Z,8.87
2023-01-04T20:29:22.452Z,9.00
2023-01-04T20:32:17.243Z,8.91
2023-01-04T20:35:08.723Z,8.93
2023-01-04T20:37:58.182Z,8.94
2023-01-04T20:40:46.207Z,8.92
2023-01-04T20:43:33.416Z,8.99
2023-01-04T20:46:29.647Z,8.94
2023-01-04T20:49:18.459Z,8.97
2023-01-04T20:52:08.452Z,8.95
2023-01-04T20:58:05.226Z,8.99
2023-01-04T21:00:54.855Z,9.10
2023-01-04T21:03:43.532Z,9.00
2023-01-04T21:06:37.181Z,9.01
2023-01-04T21:09:34.100Z,9.06
2023-01-04T21:15:50.332Z,9.08
2023-01-04T21:18:38.594Z,9.17
2023-01-04T21:21:26.383Z,9.07
2023-01-04T21:24:14.300Z,9.08
2023-01-04T21:27:02.513Z,9.16
2023-01-04T21:29:54.540Z,9.07
2023-01-04T21:32:42.424Z,9.07
2023-01-04T21:35:35.232Z,9.05
2023-01-04T21:38:28.759Z,9.08
2023-01-04T21:41:33.993Z,9.05
2023-01-04T21:44:25.352Z,9.08
2023-01-04T21:47:14.763Z,9.05
2023-01-04T21:50:02.853Z,9.05
2023-01-04T21:52:50.881Z,9.02
2023-01-04T21:55:38.684Z,9.09
2023-01-04T21:58:29.151Z,9.14
2023-01-04T22:01:18.916Z,9.18
2023-01-04T22:04:08.553Z,9.12
2023-01-04T22:06:56.606Z,9.10
2023-01-04T22:09:44.581Z,9.19
2023-01-04T22:12:32.516Z,9.16
2023-01-04T22:15:20.348Z,9.20
2023-01-04T22:18:08.457Z,9.20
2023-01-04T22:21:07.974Z,9.23
2023-01-04T22:23:56.363Z,9.19
2023-01-04T22:26:47.137Z,9.21
2023-01-04T22:29:41.000Z,9.23
2023-01-04T22:32:35.618Z,9.22
2023-01-04T22:35:23.910Z,9.21
2023-01-04T22:38:13.353Z,9.34
2023-01-04T22:41:03.735Z,9.33
2023-01-04T22:43:57.533Z,9.29
2023-01-04T22:46:46.542Z,9.36
2023-01-04T22:49:36.464Z,9.34
2023-01-04T22:52:24.191Z,9.41
2023-01-04T22:55:13.489Z,9.42
2023-01-04T22:58:03.630Z,9.37
2023-01-04T23:00:52.780Z,9.57
2023-01-04T23:03:43.268Z,9.48
2023-01-04T23:06:32.735Z,9.45
2023-01-04T23:09:20.904Z,9.45
2023-01-04T23:12:10.343Z,9.44
2023-01-04T23:15:00.045Z,9.43
2023-01-04T23:17:47.756Z,9.46
2023-01-04T23:20:36.482Z,9.54
2023-01-04T23:23:24.453Z,9.46
2023-01-04T23:26:15.727Z,9.51
2023-01-04T23:29:05.065Z,9.50
2023-01-04T23:31:52.938Z,9.51
2023-01-04T23:34:41.127Z,9.55
2023-01-04T23:37:28.862Z,9.58
2023-01-04T23:40:16.836Z,9.63
2023-01-04T23:43:04.776Z,9.59
2023-01-04T23:45:54.224Z,9.58
2023-01-04T23:48:42.320Z,9.58
2023-01-04T23:51:30.086Z,9.67
2023-01-04T23:54:20.673Z,9.74
2023-01-04T23:57:08.697Z,9.75
2023-01-04T23:59:56.856Z,9.78
